createdAt,value
2019-02-22T00:01:42.046Z,102914.31
2019-02-22T00:04:11.053Z,102915.53
2019-02-22T00:06:40.071Z,102925.66
2019-02-22T00:09:09.244Z,102939.17
2019-02-22T00:11:38.185Z,102948.36
2019-02-22T00:14:07.260Z,102953.16
2019-02-22T00:16:36.273Z,102956.63
2019-02-22T00:19:05.321Z,102962.91
2019-02-22T00:21:34.404Z,102965.56
2019-02-22T00:24:03.490Z,102961.26
2019-02-22T00:26:32.427Z,102965.92
2019-02-22T00:29:01.491Z,102980.39
2019-02-22T00:31:30.538Z,102991.63
2019-02-22T00:33:59.566Z,102989.30
2019-02-22T00:36:29.319Z,102998.33
2019-02-22T00:38:58.233Z,103008.60
2019-02-22T00:41:27.285Z,103016.61
2019-02-22T00:43:56.297Z,103018.56
2019-02-22T00:46:25.360Z,103024.86
2019-02-22T00:48:54.377Z,103026.09
2019-02-22T00:51:23.344Z,103035.05
2019-02-22T00:53:52.757Z,103049.12
2019-02-22T00:56:21.786Z,103052.97
2019-02-22T00:58:50.854Z,103054.68
2019-02-22T01:01:19.842Z,103065.54
2019-02-22T01:03:48.896Z,103067.37
2019-02-22T01:06:17.906Z,103085.54
2019-02-22T01:08:46.970Z,103086.52
2019-02-22T01:11:15.950Z,103089.83
2019-02-22T01:13:45.003Z,103086.11
2019-02-22T01:16:14.048Z,103071.44
2019-02-22T01:18:43.413Z,103083.63
2019-02-22T01:21:12.454Z,103088.39
2019-02-22T01:23:41.513Z,103089.28
2019-02-22T01:26:10.564Z,103096.95
2019-02-22T01:28:39.547Z,103108.71
2019-02-22T01:31:08.522Z,103102.42
2019-02-22T01:33:37.569Z,103098.93
2019-02-22T01:36:06.581Z,103109.98
2019-02-22T01:38:35.629Z,103112.20
2019-02-22T01:41:04.693Z,103113.02
2019-02-22T01:43:33.701Z,103114.30
2019-02-22T01:46:02.739Z,103123.47
2019-02-22T01:48:32.119Z,103130.75
2019-02-22T01:51:01.180Z,103130.30
2019-02-22T01:53:30.157Z,103125.28
2019-02-22T01:55:59.085Z,103132.08
2019-02-22T01:58:28.143Z,103144.78
2019-02-22T02:00:57.082Z,103142.63
2019-02-22T02:03:26.094Z,103142.11
2019-02-22T02:05:55.158Z,103138.11
2019-02-22T02:08:24.170Z,103134.39
2019-02-22T02:10:54.462Z,103155.09
2019-02-22T02:13:23.636Z,103160.89
2019-02-22T02:15:53.098Z,103163.86
2019-02-22T02:18:22.111Z,103165.13
2019-02-22T02:20:51.629Z,103175.79
2019-02-22T02:23:20.611Z,103174.28
2019-02-22T02:25:49.678Z,103180.38
2019-02-22T02:28:19.066Z,103184.55
2019-02-22T02:30:48.065Z,103187.83
2019-02-22T02:33:17.133Z,103188.56
2019-02-22T02:35:46.202Z,103193.80
2019-02-22T02:38:15.233Z,103196.91
2019-02-22T02:40:44.717Z,103198.59
2019-02-22T02:43:13.698Z,103202.76
2019-02-22T02:45:42.748Z,103195.93
2019-02-22T02:48:12.093Z,103210.47
2019-02-22T02:50:41.155Z,103208.84
2019-02-22T02:53:10.209Z,103210.47
2019-02-22T02:55:39.225Z,103209.20
2019-02-22T02:58:08.287Z,103218.40
2019-02-22T03:00:37.414Z,103217.45
2019-02-22T03:03:06.850Z,103223.89
2019-02-22T03:05:46.391Z,103227.33
2019-02-22T03:08:15.586Z,103227.05
2019-02-22T03:10:46.089Z,103244.34
2019-02-22T03:13:15.097Z,103244.30
2019-02-22T03:15:44.467Z,103250.22
2019-02-22T03:18:13.519Z,103252.80
2019-02-22T03:20:42.837Z,103261.08
2019-02-22T03:23:11.885Z,103253.21
2019-02-22T03:25:40.890Z,103258.64
2019-02-22T03:28:09.899Z,103275.88
2019-02-22T03:30:38.969Z,103283.08
2019-02-22T03:33:08.011Z,103292.93
2019-02-22T03:35:36.942Z,103300.89
2019-02-22T03:38:06.544Z,103305.41
2019-02-22T03:40:35.608Z,103301.78
2019-02-22T03:43:04.623Z,103316.79
2019-02-22T03:45:33.778Z,103323.38
2019-02-22T03:48:02.776Z,103322.72
2019-02-22T03:50:31.788Z,103323.64
2019-02-22T03:53:07.357Z,103339.59
2019-02-22T03:55:36.365Z,103333.99
2019-02-22T03:58:05.386Z,103343.59
2019-02-22T04:00:34.751Z,103350.27
2019-02-22T04:03:03.806Z,103367.98
2019-02-22T04:05:32.908Z,103374.36
2019-02-22T04:08:01.847Z,103379.16
2019-02-22T04:10:30.858Z,103390.03
2019-02-22T04:12:59.936Z,103396.91
2019-02-22T04:15:29.339Z,103401.45
2019-02-22T04:17:58.347Z,103407.20
2019-02-22T04:20:27.278Z,103414.13
2019-02-22T04:22:56.338Z,103416.12
2019-02-22T04:25:25.406Z,103408.95
2019-02-22T04:27:54.426Z,103414.13
2019-02-22T04:30:23.452Z,103408.12
2019-02-22T04:32:52.510Z,103416.34
2019-02-22T04:35:21.547Z,103419.97
2019-02-22T04:37:50.532Z,103434.56
2019-02-22T04:40:20.010Z,103430.65
2019-02-22T04:42:48.930Z,103427.44
2019-02-22T04:45:17.948Z,103442.38
2019-02-22T04:47:46.926Z,103452.27
2019-02-22T04:50:15.933Z,103458.70
2019-02-22T04:52:45.340Z,103464.56
2019-02-22T04:55:14.393Z,103468.05
2019-02-22T04:57:43.408Z,103470.86
2019-02-22T05:00:12.718Z,103471.33
2019-02-22T05:02:41.770Z,103481.09
2019-02-22T05:05:10.832Z,103493.80
2019-02-22T05:07:39.844Z,103491.48
2019-02-22T05:10:09.038Z,103501.50
2019-02-22T05:12:38.051Z,103503.79
2019-02-22T05:15:12.562Z,103508.56
2019-02-22T05:17:38.038Z,103507.03
2019-02-22T05:20:07.045Z,103510.42
2019-02-22T05:22:36.035Z,103518.00
2019-02-22T05:25:05.665Z,103518.92
2019-02-22T05:27:34.730Z,103523.80
2019-02-22T05:30:03.751Z,103521.82
2019-02-22T05:32:32.818Z,103543.58
2019-02-22T05:35:01.803Z,103537.66
2019-02-22T05:37:30.814Z,103546.56
2019-02-22T05:40:00.539Z,103556.06
2019-02-22T05:42:29.501Z,103558.59
2019-02-22T05:44:58.514Z,103562.97
2019-02-22T05:47:27.565Z,103557.45
2019-02-22T05:49:56.509Z,103575.60
2019-02-22T05:52:25.889Z,103566.84
2019-02-22T05:54:54.898Z,103565.05
2019-02-22T05:57:23.955Z,103577.39
2019-02-22T05:59:53.278Z,103580.33
2019-02-22T06:02:22.341Z,103571.56
2019-02-22T06:04:51.638Z,103578.55
2019-02-22T06:07:20.685Z,103591.44
2019-02-22T06:09:49.681Z,103593.71
2019-02-22T06:12:18.792Z,103605.95
2019-02-22T06:14:48.088Z,103620.84
2019-02-22T06:17:17.162Z,103633.21
2019-02-22T06:19:46.234Z,103646.31
2019-02-22T06:22:15.262Z,103652.89
2019-02-22T06:24:44.273Z,103657.20
2019-02-22T06:27:13.335Z,103663.98
2019-02-22T06:29:42.380Z,103681.54
2019-02-22T06:32:11.434Z,103687.72
2019-02-22T06:34:40.387Z,103692.18
2019-02-22T06:37:09.722Z,103708.09
2019-02-22T06:39:38.734Z,103707.95
2019-02-22T06:42:07.811Z,103727.30
2019-02-22T06:44:37.098Z,103734.09
2019-02-22T06:47:06.113Z,103732.09
2019-02-22T06:49:35.182Z,103731.96
2019-02-22T06:52:04.212Z,103736.61
2019-02-22T06:54:33.264Z,103740.08
2019-02-22T06:57:02.320Z,103743.87
2019-02-22T06:59:31.610Z,103746.33
2019-02-22T07:02:00.604Z,103745.06
2019-02-22T07:04:29.617Z,103742.74
2019-02-22T07:06:58.677Z,103754.56
2019-02-22T07:09:27.700Z,103759.63
2019-02-22T07:12:02.893Z,103768.35
2019-02-22T07:14:31.952Z,103767.69
2019-02-22T07:17:00.990Z,103774.60
2019-02-22T07:19:30.397Z,103772.73
2019-02-22T07:21:59.415Z,103777.66
2019-02-22T07:24:28.481Z,103785.37
2019-02-22T07:26:57.493Z,103787.44
2019-02-22T07:29:26.746Z,103796.34
2019-02-22T07:32:05.256Z,103806.34
2019-02-22T07:34:26.531Z,103811.80
2019-02-22T07:36:55.578Z,103815.86
2019-02-22T07:39:27.720Z,103826.22
2019-02-22T07:41:55.377Z,103824.56
2019-02-22T07:44:24.324Z,103837.41
2019-02-22T07:46:53.914Z,103835.56
2019-02-22T07:49:25.191Z,103842.89
2019-02-22T07:51:54.184Z,103846.68
2019-02-22T07:54:23.251Z,103846.33
2019-02-22T07:56:52.270Z,103870.82
2019-02-22T07:59:21.321Z,103853.72
2019-02-22T08:01:50.375Z,103846.52
2019-02-22T08:04:19.430Z,103852.84
2019-02-22T08:06:48.795Z,103856.11
2019-02-22T08:09:17.852Z,103867.36
2019-02-22T08:11:47.972Z,103871.95
2019-02-22T08:14:17.166Z,103880.28
2019-02-22T08:16:46.185Z,103882.94
2019-02-22T08:19:15.247Z,103892.48
2019-02-22T08:21:44.269Z,103895.91
2019-02-22T08:24:13.453Z,103894.79
2019-02-22T08:26:42.487Z,103906.19
2019-02-22T08:29:11.481Z,103916.41
2019-02-22T08:31:40.579Z,103937.87
2019-02-22T08:34:09.617Z,103934.17
2019-02-22T08:36:38.670Z,103947.48
2019-02-22T08:39:07.645Z,103948.38
2019-02-22T08:41:36.648Z,103942.03
2019-02-22T08:44:05.699Z,103947.12
2019-02-22T08:46:34.665Z,103958.32
2019-02-22T08:49:03.672Z,103960.02
2019-02-22T08:51:32.686Z,103958.67
2019-02-22T08:54:01.743Z,103966.16
2019-02-22T08:56:31.066Z,103966.91
2019-02-22T08:59:00.082Z,103977.48
2019-02-22T09:01:29.095Z,103965.45
2019-02-22T09:03:58.072Z,103974.98
2019-02-22T09:06:27.383Z,103970.81
2019-02-22T09:08:56.352Z,103968.95
2019-02-22T09:11:25.356Z,103977.88
2019-02-22T09:13:54.755Z,103972.41
2019-02-22T09:16:23.770Z,103985.66
2019-02-22T09:18:52.838Z,103982.08
2019-02-22T09:21:21.842Z,103976.95
2019-02-22T09:23:50.895Z,103992.25
2019-02-22T09:26:19.902Z,103989.60
2019-02-22T09:28:48.966Z,103969.88
2019-02-22T09:31:18.034Z,103969.84
2019-02-22T09:33:47.049Z,103983.90
2019-02-22T09:36:16.102Z,103973.77
2019-02-22T09:38:45.083Z,103988.29
2019-02-22T09:41:14.137Z,103996.09
2019-02-22T09:43:54.366Z,103985.44
2019-02-22T09:46:14.194Z,104007.78
2019-02-22T09:48:43.234Z,104013.52
2019-02-22T09:51:12.288Z,104003.68
2019-02-22T09:53:41.353Z,104011.91
2019-02-22T09:56:10.361Z,104017.07
2019-02-22T09:58:39.309Z,104035.29
2019-02-22T10:01:08.374Z,104037.13
2019-02-22T10:03:37.393Z,104039.92
2019-02-22T10:06:06.419Z,104042.75
2019-02-22T10:08:35.469Z,104044.68
2019-02-22T10:11:04.498Z,104052.47
2019-02-22T10:13:33.748Z,104078.00
2019-02-22T10:16:03.120Z,104070.06
2019-02-22T10:18:32.446Z,104074.73
2019-02-22T10:21:01.515Z,104078.67
2019-02-22T10:23:30.526Z,104082.73
2019-02-22T10:25:59.543Z,104080.34
2019-02-22T10:28:28.614Z,104067.40
2019-02-22T10:30:57.630Z,104078.82
2019-02-22T10:33:36.412Z,104084.70
2019-02-22T10:35:57.302Z,104088.47
2019-02-22T10:38:26.309Z,104100.52
2019-02-22T10:40:55.399Z,104099.27
2019-02-22T10:43:24.406Z,104099.53
2019-02-22T10:45:53.479Z,104111.00
2019-02-22T10:48:22.497Z,104114.13
2019-02-22T10:50:51.524Z,104118.79
2019-02-22T10:53:20.611Z,104137.40
2019-02-22T10:55:49.863Z,104138.17
2019-02-22T10:58:18.927Z,104144.48
2019-02-22T11:00:47.959Z,104149.53
2019-02-22T11:03:16.979Z,104139.09
2019-02-22T11:05:46.384Z,104126.81
2019-02-22T11:08:15.438Z,104131.47
2019-02-22T11:10:44.449Z,104138.84
2019-02-22T11:13:13.509Z,104137.99
2019-02-22T11:15:42.526Z,104133.14
2019-02-22T11:18:11.533Z,104130.71
2019-02-22T11:20:40.420Z,104121.69
2019-02-22T11:23:09.466Z,104132.65
2019-02-22T11:25:38.515Z,104134.34
2019-02-22T11:28:07.464Z,104138.20
2019-02-22T11:30:36.528Z,104147.09
2019-02-22T11:33:05.543Z,104154.74
2019-02-22T11:35:34.553Z,104150.70
2019-02-22T11:38:03.669Z,104151.25
2019-02-22T11:40:33.626Z,104167.56
2019-02-22T11:43:02.893Z,104151.28
2019-02-22T11:45:31.963Z,104157.22
2019-02-22T11:48:08.731Z,104158.38
2019-02-22T11:50:31.769Z,104154.40
2019-02-22T11:53:00.664Z,104165.52
2019-02-22T11:55:29.757Z,104156.83
2019-02-22T11:57:58.809Z,104163.36
2019-02-22T12:00:28.777Z,104142.93
2019-02-22T12:02:57.836Z,104150.14
2019-02-22T12:05:26.851Z,104153.98
2019-02-22T12:07:55.911Z,104162.80
2019-02-22T12:10:24.915Z,104162.95
2019-02-22T12:12:53.957Z,104161.12
2019-02-22T12:15:22.980Z,104178.86
2019-02-22T12:17:52.030Z,104180.19
2019-02-22T12:20:21.035Z,104195.79
2019-02-22T12:22:50.019Z,104194.58
2019-02-22T12:25:19.027Z,104215.69
2019-02-22T12:27:48.069Z,104212.44
2019-02-22T12:30:17.155Z,104199.02
2019-02-22T12:32:46.198Z,104183.77
2019-02-22T12:35:15.199Z,104170.35
2019-02-22T12:37:44.493Z,104151.98
2019-02-22T12:40:13.876Z,104150.38
2019-02-22T12:42:42.766Z,104167.27
2019-02-22T12:45:11.877Z,104151.14
2019-02-22T12:47:40.891Z,104141.96
2019-02-22T12:50:09.954Z,104135.45
2019-02-22T12:52:38.966Z,104129.61
2019-02-22T12:55:09.725Z,104143.45
2019-02-22T12:57:39.124Z,104133.66
2019-02-22T13:00:10.572Z,104141.86
2019-02-22T13:02:39.603Z,104121.44
2019-02-22T13:05:10.478Z,104119.77
2019-02-22T13:07:39.484Z,104121.20
2019-02-22T13:10:09.118Z,104122.82
2019-02-22T13:12:38.156Z,104123.00
2019-02-22T13:15:13.971Z,104122.17
2019-02-22T13:17:39.487Z,104118.43
2019-02-22T13:20:08.932Z,104113.86
2019-02-22T13:22:38.011Z,104132.66
2019-02-22T13:25:07.226Z,104131.30
2019-02-22T13:27:36.160Z,104136.90
2019-02-22T13:30:05.671Z,104155.83
2019-02-22T13:32:34.782Z,104161.66
2019-02-22T13:35:03.831Z,104180.60
2019-02-22T13:37:32.840Z,104180.13
2019-02-22T13:40:01.894Z,104172.97
2019-02-22T13:42:30.896Z,104173.78
2019-02-22T13:44:59.998Z,104164.20
2019-02-22T13:47:28.951Z,104160.55
2019-02-22T13:49:57.997Z,104153.86
2019-02-22T13:52:27.039Z,104158.05
2019-02-22T13:54:56.078Z,104160.44
2019-02-22T13:57:25.129Z,104155.77
2019-02-22T13:59:54.188Z,104154.63
2019-02-22T14:02:23.203Z,104159.00
2019-02-22T14:04:52.193Z,104160.28
2019-02-22T14:07:21.205Z,104158.64
2019-02-22T14:09:50.229Z,104157.42
2019-02-22T14:12:19.262Z,104159.11
2019-02-22T14:14:48.269Z,104164.88
2019-02-22T14:17:18.962Z,104168.36
2019-02-22T14:19:48.068Z,104163.73
2019-02-22T14:22:17.149Z,104162.33
2019-02-22T14:24:46.092Z,104165.67
2019-02-22T14:27:15.141Z,104172.40
2019-02-22T14:29:44.195Z,104174.69
2019-02-22T14:32:13.264Z,104166.73
2019-02-22T14:34:42.224Z,104175.58
2019-02-22T14:37:11.414Z,104166.66
2019-02-22T14:39:40.621Z,104170.77
2019-02-22T14:42:09.981Z,104171.48
2019-02-22T14:44:39.042Z,104171.22
2019-02-22T14:47:08.106Z,104171.42
2019-02-22T14:49:37.102Z,104166.48
2019-02-22T14:52:06.119Z,104160.36
2019-02-22T14:54:35.190Z,104166.88
2019-02-22T14:57:04.255Z,104173.71
2019-02-22T14:59:33.314Z,104179.69
2019-02-22T15:02:02.336Z,104175.05
2019-02-22T15:04:31.416Z,104170.10
2019-02-22T15:07:00.794Z,104172.37
2019-02-22T15:09:29.818Z,104166.36
2019-02-22T15:11:58.873Z,104171.69
2019-02-22T15:14:27.731Z,104175.91
2019-02-22T15:17:08.220Z,104184.19
2019-02-22T15:19:37.270Z,104178.02
2019-02-22T15:22:06.276Z,104177.85
2019-02-22T15:24:35.365Z,104189.33
2019-02-22T15:27:04.384Z,104190.59
2019-02-22T15:29:33.322Z,104194.53
2019-02-22T15:32:02.369Z,104189.03
2019-02-22T15:34:31.393Z,104174.42
2019-02-22T15:37:01.573Z,104175.36
2019-02-22T15:39:30.623Z,104171.42
2019-02-22T15:41:59.549Z,104178.16
2019-02-22T15:44:28.621Z,104172.36
2019-02-22T15:46:57.685Z,104181.30
2019-02-22T15:49:26.690Z,104193.97
2019-02-22T15:51:55.687Z,104197.64
2019-02-22T15:54:24.724Z,104204.52
2019-02-22T15:56:53.734Z,104210.92
2019-02-22T15:59:22.814Z,104217.17
2019-02-22T16:01:55.225Z,104212.37
2019-02-22T16:04:45.282Z,104221.34
2019-02-22T16:07:14.411Z,104220.27
2019-02-22T16:09:43.436Z,104211.93
2019-02-22T16:12:12.493Z,104210.74
2019-02-22T16:14:41.502Z,104216.25
2019-02-22T16:17:10.842Z,104212.77
2019-02-22T16:19:39.881Z,104225.65
2019-02-22T16:22:08.934Z,104230.27
2019-02-22T16:24:38.012Z,104237.24
2019-02-22T16:27:07.029Z,104223.69
2019-02-22T16:29:36.111Z,104225.77
2019-02-22T16:32:06.544Z,104216.66
2019-02-22T16:34:43.099Z,104220.39
2019-02-22T16:37:06.358Z,104231.08
2019-02-22T16:39:35.369Z,104219.63
2019-02-22T16:42:04.428Z,104210.86
2019-02-22T16:44:33.396Z,104217.34
2019-02-22T16:47:02.412Z,104212.69
2019-02-22T16:49:31.790Z,104217.18
2019-02-22T16:52:00.729Z,104223.58
2019-02-22T16:54:29.721Z,104222.47
2019-02-22T16:56:58.778Z,104237.94
2019-02-22T16:59:27.807Z,104239.55
2019-02-22T17:01:56.844Z,104254.55
2019-02-22T17:04:25.887Z,104254.30
2019-02-22T17:06:54.937Z,104256.52
2019-02-22T17:09:23.954Z,104255.09
2019-02-22T17:11:53.206Z,104264.08
2019-02-22T17:14:22.169Z,104256.25
2019-02-22T17:16:51.333Z,104251.97
2019-02-22T17:19:20.377Z,104241.61
2019-02-22T17:21:49.756Z,104245.94
2019-02-22T17:24:18.728Z,104251.08
2019-02-22T17:26:48.024Z,104255.95
2019-02-22T17:29:17.134Z,104271.89
2019-02-22T17:31:46.078Z,104271.98
2019-02-22T17:34:15.140Z,104272.20
2019-02-22T17:36:44.202Z,104268.24
2019-02-22T17:39:13.265Z,104282.30
2019-02-22T17:41:42.953Z,104278.65
2019-02-22T17:44:12.513Z,104274.21
2019-02-22T17:46:41.567Z,104276.56
2019-02-22T17:49:10.505Z,104283.66
2019-02-22T17:51:39.602Z,104282.97
2019-02-22T17:54:08.614Z,104270.48
2019-02-22T17:56:37.671Z,104253.95
2019-02-22T17:59:06.686Z,104249.48
2019-02-22T18:01:35.794Z,104260.36
2019-02-22T18:04:04.846Z,104256.23
2019-02-22T18:06:33.853Z,104248.83
2019-02-22T18:09:04.912Z,104246.27
2019-02-22T18:11:33.986Z,104226.56
2019-02-22T18:14:02.995Z,104239.95
2019-02-22T18:16:31.951Z,104247.52
2019-02-22T18:19:01.003Z,104249.40
2019-02-22T18:21:30.009Z,104254.62
2019-02-22T18:23:58.994Z,104258.88
2019-02-22T18:26:28.051Z,104255.75
2019-02-22T18:28:57.115Z,104251.62
2019-02-22T18:31:26.134Z,104254.09
2019-02-22T18:33:55.205Z,104250.70
2019-02-22T18:36:24.264Z,104263.62
2019-02-22T18:38:53.313Z,104288.23
2019-02-22T18:41:22.456Z,104291.76
2019-02-22T18:43:53.490Z,104296.54
2019-02-22T18:46:22.448Z,104297.80
2019-02-22T18:48:51.510Z,104287.14
2019-02-22T18:51:20.537Z,104289.30
2019-02-22T18:53:49.557Z,104289.78
2019-02-22T18:56:18.630Z,104306.56
2019-02-22T18:58:47.638Z,104321.97
2019-02-22T19:01:16.662Z,104331.09
2019-02-22T19:03:45.977Z,104324.22
2019-02-22T19:06:14.961Z,104321.04
2019-02-22T19:08:43.988Z,104323.08
2019-02-22T19:11:13.045Z,104331.34
2019-02-22T19:13:42.236Z,104332.33
2019-02-22T19:16:11.542Z,104338.33
2019-02-22T19:18:40.588Z,104337.76
2019-02-22T19:21:09.645Z,104325.56
2019-02-22T19:23:38.714Z,104317.31
2019-02-22T19:26:07.785Z,104304.91
2019-02-22T19:28:36.806Z,104310.05
2019-02-22T19:31:05.958Z,104309.08
2019-02-22T19:33:34.943Z,104300.83
2019-02-22T19:36:03.970Z,104302.30
2019-02-22T19:38:33.070Z,104311.03
2019-02-22T19:41:02.086Z,104325.86
2019-02-22T19:43:31.162Z,104326.06
2019-02-22T19:46:00.229Z,104320.06
2019-02-22T19:48:29.300Z,104315.02
2019-02-22T19:50:58.332Z,104311.15
2019-02-22T19:53:27.354Z,104324.53
2019-02-22T19:55:56.325Z,104320.84
2019-02-22T19:58:25.305Z,104322.49
2019-02-22T20:00:54.354Z,104324.81
2019-02-22T20:03:23.422Z,104313.19
2019-02-22T20:05:52.436Z,104316.27
2019-02-22T20:08:21.506Z,104324.24
2019-02-22T20:10:50.594Z,104330.16
2019-02-22T20:13:19.600Z,104320.85
2019-02-22T20:15:48.674Z,104311.86
2019-02-22T20:18:17.730Z,104308.38
2019-02-22T20:20:47.057Z,104311.19
2019-02-22T20:23:16.048Z,104295.99
2019-02-22T20:25:45.115Z,104303.84
2019-02-22T20:28:14.203Z,104307.81
2019-02-22T20:30:43.326Z,104316.73
2019-02-22T20:33:12.444Z,104317.70
2019-02-22T20:35:41.454Z,104327.48
2019-02-22T20:38:10.545Z,104322.75
2019-02-22T20:40:39.635Z,104332.14
2019-02-22T20:43:08.665Z,104336.22
2019-02-22T20:45:38.465Z,104355.30
2019-02-22T20:48:07.828Z,104338.83
2019-02-22T20:50:36.892Z,104338.45
2019-02-22T20:53:05.939Z,104338.74
2019-02-22T20:55:34.978Z,104334.77
2019-02-22T20:58:03.936Z,104342.91
2019-02-22T21:00:32.977Z,104354.73
2019-02-22T21:03:01.964Z,104347.17
2019-02-22T21:05:30.991Z,104344.95
2019-02-22T21:07:59.967Z,104338.07
2019-02-22T21:10:29.038Z,104341.37
2019-02-22T21:12:58.118Z,104348.05
2019-02-22T21:15:27.191Z,104336.05
2019-02-22T21:17:56.218Z,104339.14
2019-02-22T21:20:25.312Z,104337.20
2019-02-22T21:22:54.413Z,104344.86
2019-02-22T21:25:23.518Z,104351.83
2019-02-22T21:27:52.919Z,104358.22
2019-02-22T21:30:22.094Z,104362.00
2019-02-22T21:32:51.141Z,104367.81
2019-02-22T21:35:20.205Z,104363.55
2019-02-22T21:37:49.374Z,104368.01
2019-02-22T21:40:18.410Z,104372.95
2019-02-22T21:42:47.470Z,104372.37
2019-02-22T21:45:16.538Z,104372.95
2019-02-22T21:47:54.260Z,104372.95
2019-02-22T21:50:16.350Z,104377.11
2019-02-22T21:52:45.372Z,104379.24
2019-02-22T21:55:14.433Z,104390.48
2019-02-22T21:57:43.438Z,104401.81
2019-02-22T22:00:15.010Z,104391.94
2019-02-22T22:02:45.092Z,104397.55
2019-02-22T22:05:14.115Z,104395.03
2019-02-22T22:07:43.085Z,104394.94
2019-02-22T22:10:12.153Z,104399.30
2019-02-22T22:12:41.218Z,104395.71
2019-02-22T22:15:10.894Z,104400.16
2019-02-22T22:17:39.976Z,104395.42
2019-02-22T22:20:09.071Z,104395.99
2019-02-22T22:22:38.134Z,104388.64
2019-02-22T22:25:08.111Z,104375.75
2019-02-22T22:27:37.723Z,104383.11
2019-02-22T22:30:07.805Z,104373.81
2019-02-22T22:32:36.795Z,104381.66
2019-02-22T22:35:06.249Z,104382.63
2019-02-22T22:37:35.302Z,104396.57
2019-02-22T22:40:04.445Z,104397.98
2019-02-22T22:42:33.446Z,104392.17
2019-02-22T22:45:02.810Z,104397.88
2019-02-22T22:47:31.789Z,104406.02
2019-02-22T22:50:00.825Z,104410.95
2019-02-22T22:52:29.794Z,104405.81
2019-02-22T22:55:00.265Z,104404.55
2019-02-22T22:57:29.546Z,104398.65
2019-02-22T22:59:58.640Z,104406.10
2019-02-22T23:02:27.954Z,104402.02
2019-02-22T23:04:57.133Z,104394.47
2019-02-22T23:07:26.193Z,104391.57
2019-02-22T23:09:55.247Z,104365.53
2019-02-22T23:12:24.351Z,104352.75
2019-02-22T23:14:53.397Z,104334.45
2019-02-22T23:17:22.457Z,104326.11
2019-02-22T23:19:51.486Z,104320.59
2019-02-22T23:22:20.554Z,104322.62
2019-02-22T23:24:49.496Z,104324.37
2019-02-22T23:27:20.015Z,104332.31
2019-02-22T23:29:49.010Z,104328.92
2019-02-22T23:32:17.998Z,104335.30
2019-02-22T23:34:47.023Z,104344.11
2019-02-22T23:37:16.078Z,104347.80
2019-02-22T23:39:45.140Z,104341.98
2019-02-22T23:42:14.473Z,104337.73
2019-02-22T23:44:43.546Z,104323.69
2019-02-22T23:47:12.950Z,104330.46
2019-02-22T23:49:42.284Z,104320.40
2019-02-22T23:52:11.348Z,104321.08
2019-02-22T23:54:40.301Z,104326.41
2019-02-22T23:57:09.357Z,104323.40
2019-02-22T23:59:38.408Z,104316.34
